createdAt,value
2024-04-24T00:02:23.474Z,20.64
2024-04-24T00:04:53.679Z,20.64
2024-04-24T00:07:23.851Z,20.63
2024-04-24T00:09:56.646Z,20.62
2024-04-24T00:12:26.964Z,20.61
2024-04-24T00:14:57.171Z,20.60
2024-04-24T00:17:27.784Z,20.60
2024-04-24T00:19:58.063Z,20.58
2024-04-24T00:22:28.443Z,20.59
2024-04-24T00:25:01.377Z,20.59
2024-04-24T00:27:31.556Z,20.57
2024-04-24T00:30:04.739Z,20.58
2024-04-24T00:32:35.030Z,20.57
2024-04-24T00:35:05.478Z,20.56
2024-04-24T00:37:41.191Z,20.56
2024-04-24T00:40:14.971Z,20.55
2024-04-24T00:42:46.858Z,20.54
2024-04-24T00:45:17.037Z,20.55
2024-04-24T00:47:47.494Z,20.53
2024-04-24T00:50:19.666Z,20.53
2024-04-24T00:52:49.946Z,20.53
2024-04-24T00:55:22.977Z,20.51
2024-04-24T00:57:56.449Z,20.51
2024-04-24T01:00:26.854Z,20.51
2024-04-24T01:02:57.179Z,20.51
2024-04-24T01:05:30.496Z,20.50
2024-04-24T01:08:00.964Z,20.49
2024-04-24T01:10:36.603Z,20.48
2024-04-24T01:13:07.028Z,20.49
2024-04-24T01:15:40.529Z,20.47
2024-04-24T01:18:10.958Z,20.47
2024-04-24T01:20:42.569Z,20.47
2024-04-24T01:23:27.048Z,20.46
2024-04-24T01:26:08.043Z,20.46
2024-04-24T01:28:41.170Z,20.45
2024-04-24T01:31:09.292Z,20.45
2024-04-24T01:33:39.454Z,20.42
2024-04-24T01:36:10.113Z,20.43
2024-04-24T01:38:40.210Z,20.41
2024-04-24T01:41:07.739Z,20.43
2024-04-24T01:43:40.533Z,20.41
2024-04-24T01:46:10.654Z,20.40
2024-04-24T01:48:43.775Z,20.40
2024-04-24T01:51:13.971Z,20.39
2024-04-24T01:53:46.891Z,20.38
2024-04-24T01:56:17.145Z,20.39
2024-04-24T01:58:49.959Z,20.39
2024-04-24T02:01:20.158Z,20.38
2024-04-24T02:03:50.415Z,20.37
2024-04-24T02:06:21.254Z,20.36
2024-04-24T02:08:51.467Z,20.35
2024-04-24T02:11:22.322Z,20.35
2024-04-24T02:13:55.276Z,20.35
2024-04-24T02:16:25.466Z,20.35
2024-04-24T02:18:55.685Z,20.35
2024-04-24T02:21:28.491Z,20.34
2024-04-24T02:23:59.742Z,20.35
2024-04-24T02:26:27.405Z,20.34
2024-04-24T02:29:00.316Z,20.34
2024-04-24T02:31:30.474Z,20.33
2024-04-24T02:34:02.442Z,20.33
2024-04-24T02:36:32.691Z,20.33
2024-04-24T02:39:02.915Z,20.33
2024-04-24T02:41:34.448Z,20.32
2024-04-24T02:44:07.447Z,20.31
2024-04-24T02:46:42.044Z,20.30
2024-04-24T02:49:12.232Z,20.30
2024-04-24T02:51:42.380Z,20.28
2024-04-24T02:54:12.562Z,20.29
2024-04-24T02:56:44.967Z,20.28
2024-04-24T02:59:17.826Z,20.27
2024-04-24T03:01:48.242Z,20.25
2024-04-24T03:04:18.518Z,20.26
2024-04-24T03:06:48.673Z,20.25
2024-04-24T03:09:18.818Z,20.25
2024-04-24T03:11:49.160Z,20.26
2024-04-24T03:14:24.521Z,20.25
2024-04-24T03:16:54.853Z,20.24
2024-04-24T03:19:25.056Z,20.22
2024-04-24T03:21:55.872Z,20.22
2024-04-24T03:24:26.143Z,20.21
2024-04-24T03:26:56.289Z,20.20
2024-04-24T03:29:29.248Z,20.21
2024-04-24T03:31:59.585Z,20.20
2024-04-24T03:34:29.889Z,20.19
2024-04-24T03:37:00.053Z,20.18
2024-04-24T03:39:30.287Z,20.17
2024-04-24T03:42:00.442Z,20.18
2024-04-24T03:44:34.420Z,20.17
2024-04-24T03:47:07.794Z,20.16
2024-04-24T03:49:41.287Z,20.15
2024-04-24T03:52:11.486Z,20.16
2024-04-24T03:54:41.711Z,20.15
2024-04-24T03:57:12.198Z,20.15
2024-04-24T03:59:44.957Z,20.15
2024-04-24T04:02:15.135Z,20.15
2024-04-24T04:04:45.325Z,20.15
2024-04-24T04:07:15.485Z,20.14
2024-04-24T04:09:45.674Z,20.14
2024-04-24T04:12:15.932Z,20.14
2024-04-24T04:14:48.713Z,20.13
2024-04-24T04:17:26.550Z,20.12
2024-04-24T04:19:56.763Z,20.12
2024-04-24T04:22:30.226Z,20.11
2024-04-24T04:25:00.401Z,20.12
2024-04-24T04:27:32.224Z,20.11
2024-04-24T04:30:05.233Z,20.10
2024-04-24T04:32:35.470Z,20.12
2024-04-24T04:35:08.650Z,20.12
2024-04-24T04:37:39.764Z,20.13
2024-04-24T04:40:11.327Z,20.14
2024-04-24T04:42:41.553Z,20.14
2024-04-24T04:45:14.570Z,20.16
2024-04-24T04:47:44.863Z,20.15
2024-04-24T04:50:15.167Z,20.15
2024-04-24T04:52:45.406Z,20.14
2024-04-24T04:55:15.637Z,20.15
2024-04-24T04:57:45.850Z,20.14
2024-04-24T05:00:19.220Z,20.15
2024-04-24T05:02:49.679Z,20.14
2024-04-24T05:05:20.508Z,20.16
2024-04-24T05:07:50.732Z,20.16
2024-04-24T05:10:20.922Z,20.17
2024-04-24T05:12:53.888Z,20.17
2024-04-24T05:15:26.673Z,20.17
2024-04-24T05:17:56.997Z,20.16
2024-04-24T05:20:27.491Z,20.16
2024-04-24T05:23:01.884Z,20.16
2024-04-24T05:25:33.696Z,20.15
2024-04-24T05:28:25.318Z,20.14
2024-04-24T05:30:58.150Z,20.14
2024-04-24T05:33:28.364Z,20.12
2024-04-24T05:35:58.749Z,20.12
2024-04-24T05:38:28.920Z,20.12
2024-04-24T05:40:59.273Z,20.11
2024-04-24T05:43:29.433Z,20.12
2024-04-24T05:46:02.249Z,20.11
2024-04-24T05:48:32.427Z,20.11
2024-04-24T05:51:02.656Z,20.10
2024-04-24T05:53:32.795Z,20.10
2024-04-24T05:56:05.640Z,20.12
2024-04-24T05:58:38.448Z,20.12
2024-04-24T06:01:11.324Z,20.13
2024-04-24T06:03:41.495Z,20.13
2024-04-24T06:06:11.654Z,20.13
2024-04-24T06:08:41.798Z,20.11
2024-04-24T06:11:14.055Z,20.09
2024-04-24T06:13:44.340Z,20.10
2024-04-24T06:16:17.189Z,20.12
2024-04-24T06:18:47.481Z,20.13
2024-04-24T06:21:17.654Z,20.13
2024-04-24T06:23:47.826Z,20.12
2024-04-24T06:26:18.046Z,20.14
2024-04-24T06:28:48.374Z,20.14
2024-04-24T06:31:21.240Z,20.12
2024-04-24T06:33:53.863Z,20.13
2024-04-24T06:36:24.050Z,20.13
2024-04-24T06:38:51.633Z,20.13
2024-04-24T06:41:21.898Z,20.13
2024-04-24T06:43:54.094Z,20.12
2024-04-24T06:46:26.988Z,20.12
2024-04-24T06:48:59.382Z,20.13
2024-04-24T06:51:32.122Z,20.12
2024-04-24T06:54:05.241Z,20.12
2024-04-24T06:56:35.425Z,20.12
2024-04-24T06:59:05.685Z,20.11
2024-04-24T07:01:38.697Z,20.13
2024-04-24T07:04:12.079Z,20.11
2024-04-24T07:06:42.242Z,20.11
2024-04-24T07:09:14.872Z,20.12
2024-04-24T07:11:45.224Z,20.13
2024-04-24T07:14:15.425Z,20.12
2024-04-24T07:16:48.290Z,20.13
2024-04-24T07:19:18.431Z,20.13
2024-04-24T07:21:48.594Z,20.13
2024-04-24T07:24:18.768Z,20.14
2024-04-24T07:26:48.945Z,20.14
2024-04-24T07:29:21.932Z,20.14
2024-04-24T07:31:54.898Z,20.16
2024-04-24T07:34:25.195Z,20.15
2024-04-24T07:36:55.351Z,20.15
2024-04-24T07:39:25.949Z,20.18
2024-04-24T07:41:56.357Z,20.19
2024-04-24T07:44:26.657Z,20.21
2024-04-24T07:47:02.404Z,20.23
2024-04-24T07:49:39.664Z,20.23
2024-04-24T07:52:09.883Z,20.22
2024-04-24T07:54:40.024Z,20.23
2024-04-24T07:57:12.944Z,20.24
2024-04-24T07:59:43.087Z,20.24
2024-04-24T08:02:15.943Z,20.24
2024-04-24T08:04:46.320Z,20.25
2024-04-24T08:07:16.526Z,20.25
2024-04-24T08:09:47.870Z,20.25
2024-04-24T08:12:18.231Z,20.25
2024-04-24T08:14:48.421Z,20.24
2024-04-24T08:17:22.897Z,20.25
2024-04-24T08:19:53.885Z,20.24
2024-04-24T08:22:24.785Z,20.23
2024-04-24T08:24:54.988Z,20.23
2024-04-24T08:27:25.243Z,20.22
2024-04-24T08:29:55.367Z,20.22
2024-04-24T08:32:28.492Z,20.21
2024-04-24T08:34:58.813Z,20.21
2024-04-24T08:37:29.011Z,20.21
2024-04-24T08:39:59.170Z,20.20
2024-04-24T08:42:29.513Z,20.15
2024-04-24T08:45:03.099Z,20.19
2024-04-24T08:47:36.748Z,20.19
2024-04-24T08:50:07.513Z,20.19
2024-04-24T08:52:40.515Z,20.18
2024-04-24T08:55:15.010Z,20.17
2024-04-24T08:57:46.587Z,20.19
2024-04-24T09:00:18.230Z,20.18
2024-04-24T09:03:04.690Z,20.17
2024-04-24T09:05:37.650Z,20.18
2024-04-24T09:08:10.729Z,20.17
2024-04-24T09:10:42.191Z,20.18
2024-04-24T09:13:14.776Z,20.19
2024-04-24T09:15:50.319Z,20.19
2024-04-24T09:18:23.282Z,20.20
2024-04-24T09:20:57.533Z,20.19
2024-04-24T09:23:28.282Z,20.19
2024-04-24T09:25:59.615Z,20.18
2024-04-24T09:28:29.810Z,20.17
2024-04-24T09:31:01.542Z,20.18
2024-04-24T09:33:35.603Z,20.19
2024-04-24T09:36:06.073Z,20.18
2024-04-24T09:38:36.932Z,20.21
2024-04-24T09:41:07.836Z,20.20
2024-04-24T09:43:40.997Z,20.20
2024-04-24T09:46:11.195Z,20.20
2024-04-24T09:48:44.212Z,20.20
2024-04-24T09:51:17.038Z,20.19
2024-04-24T09:53:50.172Z,20.20
2024-04-24T09:56:29.123Z,20.19
2024-04-24T09:59:02.622Z,20.19
2024-04-24T10:01:35.591Z,20.19
2024-04-24T10:04:10.213Z,20.19
2024-04-24T10:06:44.662Z,20.20
2024-04-24T10:09:16.963Z,20.22
2024-04-24T10:11:54.112Z,20.21
2024-04-24T10:14:32.956Z,20.24
2024-04-24T10:17:06.143Z,20.23
2024-04-24T10:19:39.897Z,20.22
2024-04-24T10:22:10.536Z,20.24
2024-04-24T10:24:41.286Z,20.25
2024-04-24T10:27:12.526Z,20.25
2024-04-24T10:29:44.374Z,20.26
2024-04-24T10:32:16.241Z,20.26
2024-04-24T10:34:50.090Z,20.27
2024-04-24T10:37:20.685Z,20.26
2024-04-24T10:39:53.191Z,20.26
2024-04-24T10:42:23.554Z,20.25
2024-04-24T10:44:57.625Z,20.24
2024-04-24T10:47:28.785Z,20.23
2024-04-24T10:50:02.827Z,20.21
2024-04-24T10:52:34.396Z,20.23
2024-04-24T10:55:12.698Z,20.22
2024-04-24T10:57:49.842Z,20.22
2024-04-24T11:00:24.330Z,20.22
2024-04-24T11:02:59.336Z,20.21
2024-04-24T11:05:39.026Z,20.22
2024-04-24T11:08:09.612Z,20.21
2024-04-24T11:10:39.888Z,20.21
2024-04-24T11:13:17.764Z,20.24
2024-04-24T11:15:54.785Z,20.22
2024-04-24T11:18:32.142Z,20.25
2024-04-24T11:21:05.046Z,20.26
2024-04-24T11:23:36.548Z,20.27
2024-04-24T11:26:06.981Z,20.28
2024-04-24T11:31:07.831Z,20.29
2024-04-24T11:33:40.159Z,20.30
2024-04-24T11:36:13.385Z,20.30
2024-04-24T11:38:44.621Z,20.31
2024-04-24T11:41:14.909Z,20.31
2024-04-24T11:43:47.945Z,20.32
2024-04-24T11:46:18.296Z,20.33
2024-04-24T11:48:52.081Z,20.31
2024-04-24T11:51:26.923Z,20.34
2024-04-24T11:53:58.910Z,20.34
2024-04-24T11:56:36.958Z,20.35
2024-04-24T11:59:08.463Z,20.34
2024-04-24T12:01:39.631Z,20.35
2024-04-24T12:04:10.119Z,20.37
2024-04-24T12:06:47.098Z,20.37
2024-04-24T12:09:18.235Z,20.39
2024-04-24T12:11:53.659Z,20.39
2024-04-24T12:14:26.777Z,20.39
2024-04-24T12:16:58.072Z,20.39
2024-04-24T12:19:28.293Z,20.40
2024-04-24T12:22:02.172Z,20.41
2024-04-24T12:24:33.914Z,20.42
2024-04-24T12:27:04.156Z,20.43
2024-04-24T12:29:34.511Z,20.44
2024-04-24T12:32:06.601Z,20.45
2024-04-24T12:34:36.833Z,20.46
2024-04-24T12:37:09.808Z,20.47
2024-04-24T12:39:40.113Z,20.48
2024-04-24T12:42:11.002Z,20.48
2024-04-24T12:44:41.229Z,20.50
2024-04-24T12:47:13.831Z,20.49
2024-04-24T12:49:44.137Z,20.48
2024-04-24T12:52:17.049Z,20.49
2024-04-24T12:54:48.019Z,20.49
2024-04-24T12:57:18.705Z,20.48
2024-04-24T12:59:48.881Z,20.49
2024-04-24T13:02:19.162Z,20.49
2024-04-24T13:04:49.744Z,20.49
2024-04-24T13:07:22.592Z,20.49
2024-04-24T13:09:52.846Z,20.49
2024-04-24T13:12:23.866Z,20.50
2024-04-24T13:14:54.274Z,20.49
2024-04-24T13:17:24.662Z,20.49
2024-04-24T13:19:55.107Z,20.49
2024-04-24T13:22:27.936Z,20.49
2024-04-24T13:24:58.158Z,20.48
2024-04-24T13:27:31.533Z,20.48
2024-04-24T13:30:02.971Z,20.47
2024-04-24T13:32:34.747Z,20.48
2024-04-24T13:35:05.075Z,20.48
2024-04-24T13:37:39.109Z,20.48
2024-04-24T13:40:10.648Z,20.48
2024-04-24T13:42:40.832Z,20.47
2024-04-24T13:45:11.290Z,20.47
2024-04-24T13:47:41.691Z,20.48
2024-04-24T13:50:15.200Z,20.47
2024-04-24T13:52:49.372Z,20.46
2024-04-24T13:55:17.016Z,20.47
2024-04-24T13:57:47.269Z,20.47
2024-04-24T14:00:18.748Z,20.48
2024-04-24T14:02:49.029Z,20.47
2024-04-24T14:05:19.320Z,20.47
2024-04-24T14:07:52.117Z,20.47
2024-04-24T14:10:22.304Z,20.47
2024-04-24T14:12:52.490Z,20.48
2024-04-24T14:15:22.640Z,20.48
2024-04-24T14:17:52.794Z,20.48
2024-04-24T14:20:23.129Z,20.47
2024-04-24T14:22:56.032Z,20.47
2024-04-24T14:25:26.334Z,20.48
2024-04-24T14:27:56.491Z,20.49
2024-04-24T14:30:26.686Z,20.48
2024-04-24T14:32:57.470Z,20.48
2024-04-24T14:35:27.874Z,20.49
2024-04-24T14:38:00.776Z,20.49
2024-04-24T14:40:30.957Z,20.48
2024-04-24T14:43:04.268Z,20.49
2024-04-24T14:45:36.334Z,20.50
2024-04-24T14:48:07.024Z,20.49
2024-04-24T14:50:37.679Z,20.49
2024-04-24T14:53:10.664Z,20.48
2024-04-24T14:55:42.554Z,20.48
2024-04-24T14:58:13.269Z,20.51
2024-04-24T15:00:43.592Z,20.51
2024-04-24T15:03:14.020Z,20.49
2024-04-24T15:05:44.430Z,20.49
2024-04-24T15:08:17.268Z,20.48
2024-04-24T15:10:47.675Z,20.49
2024-04-24T15:13:17.949Z,20.49
2024-04-24T15:15:48.717Z,20.49
2024-04-24T15:18:19.160Z,20.45
2024-04-24T15:20:49.590Z,20.45
2024-04-24T15:23:22.597Z,20.46
2024-04-24T15:25:52.823Z,20.47
2024-04-24T15:28:22.963Z,20.47
2024-04-24T15:30:53.190Z,20.48
2024-04-24T15:33:23.504Z,20.48
2024-04-24T15:35:53.780Z,20.50
2024-04-24T15:38:29.568Z,20.50
2024-04-24T15:40:59.779Z,20.51
2024-04-24T15:43:30.061Z,20.52
2024-04-24T15:46:00.465Z,20.50
2024-04-24T15:48:30.766Z,20.46
2024-04-24T15:51:01.126Z,20.43
2024-04-24T15:53:33.994Z,20.46
2024-04-24T15:56:04.294Z,20.50
2024-04-24T15:58:34.671Z,20.56
2024-04-24T16:01:04.939Z,20.60
2024-04-24T16:03:36.479Z,20.62
2024-04-24T16:06:07.163Z,20.63
2024-04-24T16:08:40.032Z,20.65
2024-04-24T16:11:10.327Z,20.67
2024-04-24T16:13:41.170Z,20.65
2024-04-24T16:16:11.554Z,20.68
2024-04-24T16:18:46.187Z,20.67
2024-04-24T16:21:19.759Z,20.66
2024-04-24T16:23:50.040Z,20.66
2024-04-24T16:26:20.276Z,20.66
2024-04-24T16:28:50.509Z,20.67
2024-04-24T16:31:20.815Z,20.67
2024-04-24T16:33:51.126Z,20.67
2024-04-24T16:36:21.457Z,20.69
2024-04-24T16:38:54.419Z,20.71
2024-04-24T16:41:26.155Z,20.69
2024-04-24T16:43:58.948Z,20.69
2024-04-24T16:46:32.338Z,20.69
2024-04-24T16:49:05.505Z,20.70
2024-04-24T16:51:40.432Z,20.71
2024-04-24T16:54:13.283Z,20.74
2024-04-24T16:56:43.548Z,20.75
2024-04-24T16:59:13.790Z,20.77
2024-04-24T17:01:44.197Z,20.78
2024-04-24T17:04:14.945Z,20.80
2024-04-24T17:06:47.693Z,20.78
2024-04-24T17:09:20.801Z,20.79
2024-04-24T17:11:51.180Z,20.79
2024-04-24T17:14:21.765Z,20.79
2024-04-24T17:16:52.042Z,20.78
2024-04-24T17:19:22.345Z,20.79
2024-04-24T17:21:52.630Z,20.79
2024-04-24T17:24:25.537Z,20.80
2024-04-24T17:26:56.046Z,20.80
2024-04-24T17:29:26.386Z,20.82
2024-04-24T17:31:57.113Z,20.82
2024-04-24T17:34:27.363Z,20.81
2024-04-24T17:36:57.588Z,20.85
2024-04-24T17:39:30.895Z,20.83
2024-04-24T17:42:02.496Z,20.85
2024-04-24T17:44:32.774Z,20.86
2024-04-24T17:47:03.004Z,20.86
2024-04-24T17:49:33.256Z,20.87
2024-04-24T17:52:03.467Z,20.87
2024-04-24T17:54:37.103Z,20.88
2024-04-24T17:57:07.666Z,20.88
2024-04-24T17:59:41.168Z,20.88
2024-04-24T18:02:11.583Z,20.90
2024-04-24T18:04:44.416Z,20.90
2024-04-24T18:07:14.612Z,20.91
2024-04-24T18:09:47.441Z,20.91
2024-04-24T18:12:17.708Z,20.92
2024-04-24T18:14:45.771Z,20.91
2024-04-24T18:17:17.089Z,20.92
2024-04-24T18:19:47.695Z,20.91
2024-04-24T18:22:17.936Z,20.92
2024-04-24T18:24:50.948Z,20.93
2024-04-24T18:27:21.197Z,20.93
2024-04-24T18:29:51.476Z,20.95
2024-04-24T18:32:22.211Z,20.95
2024-04-24T18:34:52.429Z,20.95
2024-04-24T18:37:22.584Z,20.95
2024-04-24T18:39:55.574Z,20.95
2024-04-24T18:42:25.895Z,20.96
2024-04-24T18:44:56.097Z,20.97
2024-04-24T18:47:29.373Z,20.98
2024-04-24T18:49:57.066Z,20.99
2024-04-24T18:52:27.224Z,20.99
2024-04-24T18:55:00.162Z,20.99
2024-04-24T18:57:35.816Z,21.01
2024-04-24T19:00:11.336Z,21.02
2024-04-24T19:02:41.780Z,21.04
2024-04-24T19:05:14.159Z,21.04
2024-04-24T19:07:45.161Z,21.05
2024-04-24T19:10:20.058Z,21.07
2024-04-24T19:12:50.261Z,21.07
2024-04-24T19:15:22.299Z,21.07
2024-04-24T19:17:52.661Z,21.08
2024-04-24T19:20:22.988Z,21.07
2024-04-24T19:22:53.239Z,21.08
2024-04-24T19:25:26.159Z,21.08
2024-04-24T19:27:56.357Z,21.08
2024-04-24T19:30:26.715Z,21.09
2024-04-24T19:32:58.005Z,21.10
2024-04-24T19:35:31.759Z,21.10
2024-04-24T19:38:02.072Z,21.10
2024-04-24T19:40:34.937Z,21.10
2024-04-24T19:43:08.105Z,21.05
2024-04-24T19:45:38.596Z,21.11
2024-04-24T19:48:10.091Z,21.09
2024-04-24T19:50:40.588Z,21.11
2024-04-24T19:53:10.959Z,21.10
2024-04-24T19:55:43.816Z,21.11
2024-04-24T19:58:14.148Z,21.11
2024-04-24T20:00:50.650Z,21.10
2024-04-24T20:03:21.016Z,21.12
2024-04-24T20:05:51.295Z,21.11
2024-04-24T20:08:21.535Z,21.11
2024-04-24T20:10:55.166Z,21.10
2024-04-24T20:13:25.425Z,21.11
2024-04-24T20:15:55.654Z,21.09
2024-04-24T20:18:26.029Z,21.10
2024-04-24T20:20:56.444Z,21.09
2024-04-24T20:23:26.723Z,21.09
2024-04-24T20:25:59.626Z,21.07
2024-04-24T20:28:31.479Z,21.06
2024-04-24T20:31:01.735Z,21.05
2024-04-24T20:33:32.087Z,21.06
2024-04-24T20:36:03.625Z,21.07
2024-04-24T20:38:33.903Z,21.05
2024-04-24T20:41:09.936Z,21.05
2024-04-24T20:43:40.176Z,21.07
2024-04-24T20:46:10.739Z,21.08
2024-04-24T20:48:41.002Z,21.07
2024-04-24T20:51:11.764Z,21.04
2024-04-24T20:53:42.224Z,21.04
2024-04-24T20:56:17.474Z,21.05
2024-04-24T20:58:48.051Z,21.02
2024-04-24T21:01:18.362Z,21.02
2024-04-24T21:03:48.685Z,21.01
2024-04-24T21:06:19.841Z,21.01
2024-04-24T21:08:51.587Z,21.00
2024-04-24T21:11:26.498Z,20.99
2024-04-24T21:13:58.338Z,20.99
2024-04-24T21:16:28.835Z,20.99
2024-04-24T21:18:59.109Z,20.98
2024-04-24T21:21:30.341Z,20.99
2024-04-24T21:24:00.535Z,20.97
2024-04-24T21:26:35.018Z,20.98
2024-04-24T21:29:05.484Z,20.93
2024-04-24T21:31:35.738Z,20.91
2024-04-24T21:34:06.002Z,20.92
2024-04-24T21:36:40.525Z,20.91
2024-04-24T21:39:13.588Z,20.91
2024-04-24T21:41:46.407Z,20.89
2024-04-24T21:44:16.695Z,20.89
2024-04-24T21:46:46.931Z,20.89
2024-04-24T21:49:17.268Z,20.87
2024-04-24T21:51:47.464Z,20.87
2024-04-24T21:54:17.650Z,20.87
2024-04-24T21:56:50.555Z,20.86
2024-04-24T21:59:20.739Z,20.86
2024-04-24T22:01:54.809Z,20.84
2024-04-24T22:04:25.089Z,20.83
2024-04-24T22:06:55.322Z,20.82
2024-04-24T22:09:26.259Z,20.81
2024-04-24T22:12:02.067Z,20.81
2024-04-24T22:14:32.413Z,20.80
2024-04-24T22:17:03.812Z,20.79
2024-04-24T22:19:37.209Z,20.80
2024-04-24T22:22:07.515Z,20.78
2024-04-24T22:24:37.679Z,20.78
2024-04-24T22:27:10.559Z,20.77
2024-04-24T22:29:40.743Z,20.76
2024-04-24T22:32:11.283Z,20.75
2024-04-24T22:34:41.584Z,20.74
2024-04-24T22:37:12.254Z,20.74
2024-04-24T22:39:42.435Z,20.73
2024-04-24T22:42:15.298Z,20.72
2024-04-24T22:44:45.469Z,20.71
2024-04-24T22:47:15.688Z,20.71
2024-04-24T22:49:47.301Z,20.69
2024-04-24T22:52:20.122Z,20.69
2024-04-24T22:54:50.339Z,20.67
2024-04-24T22:57:23.195Z,20.67
2024-04-24T22:59:53.398Z,20.67
2024-04-24T23:02:23.776Z,20.67
2024-04-24T23:04:54.031Z,20.66
2024-04-24T23:07:24.282Z,20.65
2024-04-24T23:09:55.254Z,20.66
2024-04-24T23:12:28.206Z,20.65
2024-04-24T23:14:58.431Z,20.66
2024-04-24T23:17:28.690Z,20.65
2024-04-24T23:19:58.949Z,20.64
2024-04-24T23:22:29.501Z,20.64
2024-04-24T23:24:59.691Z,20.64
2024-04-24T23:27:32.533Z,20.64
2024-04-24T23:30:03.239Z,20.63
2024-04-24T23:32:36.645Z,20.62
2024-04-24T23:35:08.736Z,20.62
2024-04-24T23:37:39.277Z,20.64
2024-04-24T23:40:10.875Z,20.63
2024-04-24T23:42:43.652Z,20.62
2024-04-24T23:45:13.863Z,20.62
2024-04-24T23:47:44.215Z,20.63
2024-04-24T23:50:14.523Z,20.63
2024-04-24T23:52:48.039Z,20.62
2024-04-24T23:55:18.266Z,20.63
2024-04-24T23:57:51.120Z,20.62
